sensor_id;sensor_type;location;lat;lon;timestamp;P1;durP1;ratioP1;P2;durP2;ratioP2
50968;SDS011;36982;51.474;7.228;2023-03-03T00:02:07;52.50;;;25.07;;
50968;SDS011;36982;51.474;7.228;2023-03-03T00:04:32;56.50;;;26.17;;
50968;SDS011;36982;51.474;7.228;2023-03-03T00:06:58;53.17;;;26.70;;
50968;SDS011;36982;51.474;7.228;2023-03-03T00:09:24;58.90;;;28.27;;
50968;SDS011;36982;51.474;7.228;2023-03-03T00:11:53;58.53;;;26.97;;
50968;SDS011;36982;51.474;7.228;2023-03-03T00:14:25;54.97;;;24.80;;
50968;SDS011;36982;51.474;7.228;2023-03-03T00:16:54;59.43;;;28.57;;
50968;SDS011;36982;51.474;7.228;2023-03-03T00:19:20;55.10;;;26.67;;
50968;SDS011;36982;51.474;7.228;2023-03-03T00:21:48;58.60;;;26.27;;
50968;SDS011;36982;51.474;7.228;2023-03-03T00:26:49;56.63;;;25.73;;
50968;SDS011;36982;51.474;7.228;2023-03-03T00:29:28;52.80;;;26.43;;
50968;SDS011;36982;51.474;7.228;2023-03-03T00:34:52;50.93;;;24.87;;
50968;SDS011;36982;51.474;7.228;2023-03-03T00:39:53;45.87;;;23.17;;
50968;SDS011;36982;51.474;7.228;2023-03-03T00:42:25;45.67;;;23.53;;
50968;SDS011;36982;51.474;7.228;2023-03-03T00:44:58;47.67;;;24.00;;
50968;SDS011;36982;51.474;7.228;2023-03-03T00:50:13;40.23;;;20.40;;
50968;SDS011;36982;51.474;7.228;2023-03-03T00:53:14;39.10;;;19.67;;
50968;SDS011;36982;51.474;7.228;2023-03-03T00:55:41;41.03;;;21.27;;
50968;SDS011;36982;51.474;7.228;2023-03-03T00:58:07;42.50;;;22.03;;
50968;SDS011;36982;51.474;7.228;2023-03-03T01:00:33;50.73;;;22.80;;
50968;SDS011;36982;51.474;7.228;2023-03-03T01:03:04;44.40;;;22.93;;
50968;SDS011;36982;51.474;7.228;2023-03-03T01:05:33;46.27;;;21.93;;
50968;SDS011;36982;51.474;7.228;2023-03-03T01:07:59;42.17;;;21.30;;
50968;SDS011;36982;51.474;7.228;2023-03-03T01:10:26;45.93;;;21.90;;
50968;SDS011;36982;51.474;7.228;2023-03-03T01:12:53;50.43;;;24.50;;
50968;SDS011;36982;51.474;7.228;2023-03-03T01:15:20;48.70;;;22.93;;
50968;SDS011;36982;51.474;7.228;2023-03-03T01:17:46;42.57;;;21.67;;
50968;SDS011;36982;51.474;7.228;2023-03-03T01:20:13;48.00;;;23.33;;
50968;SDS011;36982;51.474;7.228;2023-03-03T01:22:39;42.13;;;21.53;;
50968;SDS011;36982;51.474;7.228;2023-03-03T01:25:05;45.23;;;22.03;;
50968;SDS011;36982;51.474;7.228;2023-03-03T01:27:31;44.73;;;23.07;;
50968;SDS011;36982;51.474;7.228;2023-03-03T01:29:58;49.30;;;23.20;;
50968;SDS011;36982;51.474;7.228;2023-03-03T01:32:23;44.27;;;21.97;;
50968;SDS011;36982;51.474;7.228;2023-03-03T01:34:49;47.97;;;23.10;;
50968;SDS011;36982;51.474;7.228;2023-03-03T01:37:15;43.23;;;22.50;;
50968;SDS011;36982;51.474;7.228;2023-03-03T01:39:41;48.70;;;20.97;;
50968;SDS011;36982;51.474;7.228;2023-03-03T01:42:06;44.70;;;23.00;;
50968;SDS011;36982;51.474;7.228;2023-03-03T01:44:33;49.70;;;22.67;;
50968;SDS011;36982;51.474;7.228;2023-03-03T01:52:38;50.90;;;22.37;;
50968;SDS011;36982;51.474;7.228;2023-03-03T01:55:19;49.43;;;22.97;;
50968;SDS011;36982;51.474;7.228;2023-03-03T01:57:51;39.27;;;18.33;;
50968;SDS011;36982;51.474;7.228;2023-03-03T02:00:24;44.13;;;20.57;;
50968;SDS011;36982;51.474;7.228;2023-03-03T02:02:50;42.63;;;20.73;;
50968;SDS011;36982;51.474;7.228;2023-03-03T02:05:16;45.73;;;21.67;;
50968;SDS011;36982;51.474;7.228;2023-03-03T02:07:42;44.23;;;20.17;;
50968;SDS011;36982;51.474;7.228;2023-03-03T02:10:13;47.93;;;21.20;;
50968;SDS011;36982;51.474;7.228;2023-03-03T02:12:41;45.63;;;19.17;;
50968;SDS011;36982;51.474;7.228;2023-03-03T02:15:26;40.00;;;20.70;;
50968;SDS011;36982;51.474;7.228;2023-03-03T02:17:56;42.03;;;20.93;;
50968;SDS011;36982;51.474;7.228;2023-03-03T02:26:04;49.47;;;22.13;;
50968;SDS011;36982;51.474;7.228;2023-03-03T02:29:02;48.37;;;23.00;;
50968;SDS011;36982;51.474;7.228;2023-03-03T02:31:28;49.40;;;23.07;;
50968;SDS011;36982;51.474;7.228;2023-03-03T02:33:55;23.97;;;12.17;;
50968;SDS011;36982;51.474;7.228;2023-03-03T02:36:22;53.97;;;24.80;;
50968;SDS011;36982;51.474;7.228;2023-03-03T02:38:55;48.73;;;23.93;;
50968;SDS011;36982;51.474;7.228;2023-03-03T02:41:31;51.43;;;24.57;;
50968;SDS011;36982;51.474;7.228;2023-03-03T02:44:00;51.17;;;24.20;;
50968;SDS011;36982;51.474;7.228;2023-03-03T02:46:27;57.40;;;25.50;;
50968;SDS011;36982;51.474;7.228;2023-03-03T02:48:55;55.30;;;26.07;;
50968;SDS011;36982;51.474;7.228;2023-03-03T02:51:21;56.63;;;24.17;;
50968;SDS011;36982;51.474;7.228;2023-03-03T02:53:47;59.70;;;26.67;;
50968;SDS011;36982;51.474;7.228;2023-03-03T02:56:12;62.33;;;25.43;;
50968;SDS011;36982;51.474;7.228;2023-03-03T02:58:38;60.13;;;26.50;;
50968;SDS011;36982;51.474;7.228;2023-03-03T03:01:04;48.13;;;21.70;;
50968;SDS011;36982;51.474;7.228;2023-03-03T03:03:29;56.47;;;24.40;;
50968;SDS011;36982;51.474;7.228;2023-03-03T03:05:55;55.07;;;25.63;;
50968;SDS011;36982;51.474;7.228;2023-03-03T03:08:21;59.07;;;27.40;;
50968;SDS011;36982;51.474;7.228;2023-03-03T03:10:46;57.30;;;24.57;;
50968;SDS011;36982;51.474;7.228;2023-03-03T03:13:12;65.07;;;27.73;;
50968;SDS011;36982;51.474;7.228;2023-03-03T03:15:38;57.57;;;24.80;;
50968;SDS011;36982;51.474;7.228;2023-03-03T03:18:03;56.80;;;26.57;;
50968;SDS011;36982;51.474;7.228;2023-03-03T03:20:29;68.73;;;28.33;;
50968;SDS011;36982;51.474;7.228;2023-03-03T03:22:54;67.43;;;28.03;;
50968;SDS011;36982;51.474;7.228;2023-03-03T03:25:20;75.77;;;28.30;;
50968;SDS011;36982;51.474;7.228;2023-03-03T03:27:45;63.70;;;25.33;;
50968;SDS011;36982;51.474;7.228;2023-03-03T03:30:11;64.67;;;26.83;;
50968;SDS011;36982;51.474;7.228;2023-03-03T03:32:37;66.13;;;26.43;;
50968;SDS011;36982;51.474;7.228;2023-03-03T03:35:03;56.60;;;24.97;;
50968;SDS011;36982;51.474;7.228;2023-03-03T03:37:29;58.07;;;23.37;;
50968;SDS011;36982;51.474;7.228;2023-03-03T03:39:54;56.80;;;22.83;;
50968;SDS011;36982;51.474;7.228;2023-03-03T03:42:20;60.30;;;24.60;;
50968;SDS011;36982;51.474;7.228;2023-03-03T03:44:46;55.30;;;23.83;;
50968;SDS011;36982;51.474;7.228;2023-03-03T03:47:11;58.20;;;22.73;;
50968;SDS011;36982;51.474;7.228;2023-03-03T03:49:37;52.03;;;22.93;;
50968;SDS011;36982;51.474;7.228;2023-03-03T03:52:03;38.27;;;15.50;;
50968;SDS011;36982;51.474;7.228;2023-03-03T03:54:31;54.43;;;21.50;;
50968;SDS011;36982;51.474;7.228;2023-03-03T03:56:59;54.33;;;20.77;;
50968;SDS011;36982;51.474;7.228;2023-03-03T03:59:24;59.10;;;24.40;;
50968;SDS011;36982;51.474;7.228;2023-03-03T04:01:50;57.37;;;21.60;;
50968;SDS011;36982;51.474;7.228;2023-03-03T04:04:15;48.67;;;20.47;;
50968;SDS011;36982;51.474;7.228;2023-03-03T04:06:41;59.90;;;23.20;;
50968;SDS011;36982;51.474;7.228;2023-03-03T04:09:07;53.23;;;21.97;;
50968;SDS011;36982;51.474;7.228;2023-03-03T04:11:32;56.20;;;22.07;;
50968;SDS011;36982;51.474;7.228;2023-03-03T04:13:58;50.40;;;20.43;;
50968;SDS011;36982;51.474;7.228;2023-03-03T04:16:23;44.60;;;17.67;;
50968;SDS011;36982;51.474;7.228;2023-03-03T04:18:49;46.70;;;18.47;;
50968;SDS011;36982;51.474;7.228;2023-03-03T04:21:14;45.93;;;19.20;;
50968;SDS011;36982;51.474;7.228;2023-03-03T04:23:40;40.77;;;16.83;;
50968;SDS011;36982;51.474;7.228;2023-03-03T04:26:06;45.40;;;19.37;;
50968;SDS011;36982;51.474;7.228;2023-03-03T04:28:33;38.77;;;15.10;;
50968;SDS011;36982;51.474;7.228;2023-03-03T04:30:58;33.83;;;13.70;;
50968;SDS011;36982;51.474;7.228;2023-03-03T04:33:24;33.27;;;12.60;;
50968;SDS011;36982;51.474;7.228;2023-03-03T04:35:50;35.70;;;14.90;;
50968;SDS011;36982;51.474;7.228;2023-03-03T04:38:15;39.13;;;16.67;;
50968;SDS011;36982;51.474;7.228;2023-03-03T04:40:41;37.37;;;16.30;;
50968;SDS011;36982;51.474;7.228;2023-03-03T04:43:07;39.23;;;15.80;;
50968;SDS011;36982;51.474;7.228;2023-03-03T04:45:33;37.30;;;15.30;;
50968;SDS011;36982;51.474;7.228;2023-03-03T04:47:59;34.53;;;14.83;;
50968;SDS011;36982;51.474;7.228;2023-03-03T04:50:26;33.03;;;13.87;;
50968;SDS011;36982;51.474;7.228;2023-03-03T04:52:51;29.07;;;13.90;;
50968;SDS011;36982;51.474;7.228;2023-03-03T04:55:17;31.70;;;14.13;;
50968;SDS011;36982;51.474;7.228;2023-03-03T04:57:42;30.57;;;13.83;;
50968;SDS011;36982;51.474;7.228;2023-03-03T05:00:09;31.30;;;14.97;;
50968;SDS011;36982;51.474;7.228;2023-03-03T05:02:37;33.60;;;14.13;;
50968;SDS011;36982;51.474;7.228;2023-03-03T05:05:03;27.20;;;12.70;;
50968;SDS011;36982;51.474;7.228;2023-03-03T05:07:29;27.03;;;11.43;;
50968;SDS011;36982;51.474;7.228;2023-03-03T05:09:55;31.43;;;14.27;;
50968;SDS011;36982;51.474;7.228;2023-03-03T05:12:20;30.87;;;13.90;;
50968;SDS011;36982;51.474;7.228;2023-03-03T05:14:46;30.17;;;14.37;;
50968;SDS011;36982;51.474;7.228;2023-03-03T05:17:12;33.20;;;15.40;;
50968;SDS011;36982;51.474;7.228;2023-03-03T05:19:38;38.97;;;15.23;;
50968;SDS011;36982;51.474;7.228;2023-03-03T05:22:04;39.17;;;16.70;;
50968;SDS011;36982;51.474;7.228;2023-03-03T05:24:30;40.17;;;16.97;;
50968;SDS011;36982;51.474;7.228;2023-03-03T05:26:55;38.83;;;17.23;;
50968;SDS011;36982;51.474;7.228;2023-03-03T05:29:21;37.70;;;17.33;;
50968;SDS011;36982;51.474;7.228;2023-03-03T05:31:47;41.10;;;17.97;;
50968;SDS011;36982;51.474;7.228;2023-03-03T05:34:12;35.10;;;14.97;;
50968;SDS011;36982;51.474;7.228;2023-03-03T05:36:38;41.50;;;18.37;;
50968;SDS011;36982;51.474;7.228;2023-03-03T05:39:03;41.90;;;17.40;;
50968;SDS011;36982;51.474;7.228;2023-03-03T05:41:29;43.90;;;18.10;;
50968;SDS011;36982;51.474;7.228;2023-03-03T05:43:55;40.77;;;16.37;;
50968;SDS011;36982;51.474;7.228;2023-03-03T05:46:20;39.73;;;16.10;;
50968;SDS011;36982;51.474;7.228;2023-03-03T05:48:46;39.30;;;15.30;;
50968;SDS011;36982;51.474;7.228;2023-03-03T05:51:11;43.73;;;17.87;;
50968;SDS011;36982;51.474;7.228;2023-03-03T05:53:37;43.70;;;17.90;;
50968;SDS011;36982;51.474;7.228;2023-03-03T05:56:02;44.23;;;18.33;;
50968;SDS011;36982;51.474;7.228;2023-03-03T05:58:28;44.70;;;17.37;;
50968;SDS011;36982;51.474;7.228;2023-03-03T06:00:54;24.67;;;9.10;;
50968;SDS011;36982;51.474;7.228;2023-03-03T06:03:20;50.97;;;18.43;;
50968;SDS011;36982;51.474;7.228;2023-03-03T06:05:45;52.17;;;19.70;;
50968;SDS011;36982;51.474;7.228;2023-03-03T06:08:11;45.43;;;18.60;;
50968;SDS011;36982;51.474;7.228;2023-03-03T06:10:36;49.03;;;19.07;;
50968;SDS011;36982;51.474;7.228;2023-03-03T06:13:02;52.47;;;20.47;;
50968;SDS011;36982;51.474;7.228;2023-03-03T06:15:28;49.67;;;19.47;;
50968;SDS011;36982;51.474;7.228;2023-03-03T06:17:53;47.60;;;17.90;;
50968;SDS011;36982;51.474;7.228;2023-03-03T06:20:19;47.53;;;18.67;;
50968;SDS011;36982;51.474;7.228;2023-03-03T06:22:45;42.27;;;18.40;;
50968;SDS011;36982;51.474;7.228;2023-03-03T06:25:10;42.03;;;17.73;;
50968;SDS011;36982;51.474;7.228;2023-03-03T06:27:36;40.00;;;17.23;;
50968;SDS011;36982;51.474;7.228;2023-03-03T06:30:01;42.43;;;18.47;;
50968;SDS011;36982;51.474;7.228;2023-03-03T06:32:27;40.20;;;18.13;;
50968;SDS011;36982;51.474;7.228;2023-03-03T06:34:53;45.03;;;16.80;;
50968;SDS011;36982;51.474;7.228;2023-03-03T06:37:18;45.77;;;18.60;;
50968;SDS011;36982;51.474;7.228;2023-03-03T06:39:44;43.10;;;19.40;;
50968;SDS011;36982;51.474;7.228;2023-03-03T06:42:09;43.50;;;19.23;;
50968;SDS011;36982;51.474;7.228;2023-03-03T06:44:35;49.27;;;21.13;;
50968;SDS011;36982;51.474;7.228;2023-03-03T06:47:01;45.37;;;19.20;;
50968;SDS011;36982;51.474;7.228;2023-03-03T06:49:26;49.80;;;19.67;;
50968;SDS011;36982;51.474;7.228;2023-03-03T06:51:52;38.90;;;14.43;;
50968;SDS011;36982;51.474;7.228;2023-03-03T06:54:19;42.47;;;18.97;;
50968;SDS011;36982;51.474;7.228;2023-03-03T06:56:48;52.27;;;21.43;;
50968;SDS011;36982;51.474;7.228;2023-03-03T06:59:17;48.27;;;21.07;;
50968;SDS011;36982;51.474;7.228;2023-03-03T07:01:46;49.90;;;19.97;;
50968;SDS011;36982;51.474;7.228;2023-03-03T07:04:29;51.57;;;20.83;;
50968;SDS011;36982;51.474;7.228;2023-03-03T07:07:14;41.37;;;17.40;;
50968;SDS011;36982;51.474;7.228;2023-03-03T07:09:46;41.20;;;16.60;;
50968;SDS011;36982;51.474;7.228;2023-03-03T07:12:23;53.20;;;20.20;;
50968;SDS011;36982;51.474;7.228;2023-03-03T07:14:52;46.33;;;19.10;;
50968;SDS011;36982;51.474;7.228;2023-03-03T07:17:36;49.13;;;18.70;;
50968;SDS011;36982;51.474;7.228;2023-03-03T07:20:22;52.53;;;21.20;;
50968;SDS011;36982;51.474;7.228;2023-03-03T07:22:56;42.77;;;16.87;;
50968;SDS011;36982;51.474;7.228;2023-03-03T07:25:32;52.53;;;19.50;;
50968;SDS011;36982;51.474;7.228;2023-03-03T07:28:14;52.73;;;21.13;;
50968;SDS011;36982;51.474;7.228;2023-03-03T07:30:48;47.97;;;19.93;;
50968;SDS011;36982;51.474;7.228;2023-03-03T07:33:23;51.63;;;20.83;;
50968;SDS011;36982;51.474;7.228;2023-03-03T07:35:54;57.07;;;21.43;;
50968;SDS011;36982;51.474;7.228;2023-03-03T07:41:03;47.93;;;20.40;;
50968;SDS011;36982;51.474;7.228;2023-03-03T07:43:39;50.50;;;20.47;;
50968;SDS011;36982;51.474;7.228;2023-03-03T07:46:16;55.40;;;20.70;;
50968;SDS011;36982;51.474;7.228;2023-03-03T07:48:49;47.33;;;20.13;;
50968;SDS011;36982;51.474;7.228;2023-03-03T07:53:51;53.63;;;21.03;;
50968;SDS011;36982;51.474;7.228;2023-03-03T07:56:27;50.07;;;20.20;;
50968;SDS011;36982;51.474;7.228;2023-03-03T07:58:54;55.27;;;21.43;;
50968;SDS011;36982;51.474;7.228;2023-03-03T08:07:00;55.23;;;21.83;;
50968;SDS011;36982;51.474;7.228;2023-03-03T08:09:34;54.80;;;21.33;;
50968;SDS011;36982;51.474;7.228;2023-03-03T08:14:33;46.87;;;19.87;;
50968;SDS011;36982;51.474;7.228;2023-03-03T08:17:00;55.37;;;20.30;;
50968;SDS011;36982;51.474;7.228;2023-03-03T08:19:26;52.60;;;20.77;;
50968;SDS011;36982;51.474;7.228;2023-03-03T08:22:01;41.13;;;15.87;;
50968;SDS011;36982;51.474;7.228;2023-03-03T08:24:38;57.43;;;20.20;;
50968;SDS011;36982;51.474;7.228;2023-03-03T08:27:04;49.67;;;19.03;;
50968;SDS011;36982;51.474;7.228;2023-03-03T08:29:29;54.20;;;19.57;;
50968;SDS011;36982;51.474;7.228;2023-03-03T08:31:55;42.80;;;17.90;;
50968;SDS011;36982;51.474;7.228;2023-03-03T08:34:20;50.57;;;21.00;;
50968;SDS011;36982;51.474;7.228;2023-03-03T08:36:46;46.13;;;18.70;;
50968;SDS011;36982;51.474;7.228;2023-03-03T08:39:11;47.83;;;19.83;;
50968;SDS011;36982;51.474;7.228;2023-03-03T08:41:37;50.53;;;21.47;;
50968;SDS011;36982;51.474;7.228;2023-03-03T08:44:04;46.27;;;18.50;;
50968;SDS011;36982;51.474;7.228;2023-03-03T08:46:30;50.77;;;19.77;;
50968;SDS011;36982;51.474;7.228;2023-03-03T08:48:56;54.40;;;22.90;;
50968;SDS011;36982;51.474;7.228;2023-03-03T08:51:21;58.43;;;23.33;;
50968;SDS011;36982;51.474;7.228;2023-03-03T08:53:47;57.53;;;22.97;;
50968;SDS011;36982;51.474;7.228;2023-03-03T08:56:12;55.10;;;23.03;;
50968;SDS011;36982;51.474;7.228;2023-03-03T08:58:38;53.40;;;21.57;;
50968;SDS011;36982;51.474;7.228;2023-03-03T09:01:05;48.47;;;18.87;;
50968;SDS011;36982;51.474;7.228;2023-03-03T09:03:31;51.67;;;20.07;;
50968;SDS011;36982;51.474;7.228;2023-03-03T09:05:57;49.83;;;18.67;;
50968;SDS011;36982;51.474;7.228;2023-03-03T09:08:23;47.40;;;18.00;;
50968;SDS011;36982;51.474;7.228;2023-03-03T09:10:48;44.60;;;18.77;;
50968;SDS011;36982;51.474;7.228;2023-03-03T09:13:15;41.67;;;17.20;;
50968;SDS011;36982;51.474;7.228;2023-03-03T09:15:43;47.83;;;18.13;;
50968;SDS011;36982;51.474;7.228;2023-03-03T09:18:16;48.03;;;18.07;;
50968;SDS011;36982;51.474;7.228;2023-03-03T09:20:47;50.37;;;20.30;;
50968;SDS011;36982;51.474;7.228;2023-03-03T09:23:47;50.63;;;19.83;;
50968;SDS011;36982;51.474;7.228;2023-03-03T09:26:23;50.47;;;18.40;;
50968;SDS011;36982;51.474;7.228;2023-03-03T09:34:27;52.30;;;20.37;;
50968;SDS011;36982;51.474;7.228;2023-03-03T09:36:55;56.33;;;22.70;;
50968;SDS011;36982;51.474;7.228;2023-03-03T09:39:21;52.60;;;20.23;;
50968;SDS011;36982;51.474;7.228;2023-03-03T09:41:59;48.90;;;19.93;;
50968;SDS011;36982;51.474;7.228;2023-03-03T09:54:02;49.20;;;18.27;;
50968;SDS011;36982;51.474;7.228;2023-03-03T09:57:28;24.53;;;10.90;;
50968;SDS011;36982;51.474;7.228;2023-03-03T10:02:30;37.67;;;13.93;;
50968;SDS011;36982;51.474;7.228;2023-03-03T10:08:10;32.93;;;12.03;;
50968;SDS011;36982;51.474;7.228;2023-03-03T10:11:01;31.47;;;13.40;;
50968;SDS011;36982;51.474;7.228;2023-03-03T10:21:59;28.53;;;11.93;;
50968;SDS011;36982;51.474;7.228;2023-03-03T10:24:46;29.87;;;12.73;;
50968;SDS011;36982;51.474;7.228;2023-03-03T10:30:16;34.57;;;13.90;;
50968;SDS011;36982;51.474;7.228;2023-03-03T10:32:57;36.60;;;14.40;;
50968;SDS011;36982;51.474;7.228;2023-03-03T10:54:24;28.80;;;12.87;;
50968;SDS011;36982;51.474;7.228;2023-03-03T10:58:00;32.63;;;12.97;;
50968;SDS011;36982;51.474;7.228;2023-03-03T11:02:50;31.53;;;13.20;;
50968;SDS011;36982;51.474;7.228;2023-03-03T11:05:27;35.73;;;13.53;;
50968;SDS011;36982;51.474;7.228;2023-03-03T11:08:10;35.33;;;15.30;;
50968;SDS011;36982;51.474;7.228;2023-03-03T11:10:46;31.53;;;14.53;;
50968;SDS011;36982;51.474;7.228;2023-03-03T11:21:02;34.33;;;13.93;;
50968;SDS011;36982;51.474;7.228;2023-03-03T11:23:52;33.03;;;13.80;;
50968;SDS011;36982;51.474;7.228;2023-03-03T11:26:33;28.17;;;11.60;;
50968;SDS011;36982;51.474;7.228;2023-03-03T11:32:38;28.47;;;12.07;;
50968;SDS011;36982;51.474;7.228;2023-03-03T11:43:37;30.80;;;13.03;;
50968;SDS011;36982;51.474;7.228;2023-03-03T11:46:14;39.33;;;15.63;;
50968;SDS011;36982;51.474;7.228;2023-03-03T11:48:46;36.20;;;14.43;;
50968;SDS011;36982;51.474;7.228;2023-03-03T11:51:46;37.63;;;17.20;;
50968;SDS011;36982;51.474;7.228;2023-03-03T11:56:53;42.30;;;19.03;;
50968;SDS011;36982;51.474;7.228;2023-03-03T11:59:38;43.70;;;18.90;;
50968;SDS011;36982;51.474;7.228;2023-03-03T12:04:55;35.77;;;16.07;;
50968;SDS011;36982;51.474;7.228;2023-03-03T12:10:29;35.73;;;16.37;;
50968;SDS011;36982;51.474;7.228;2023-03-03T12:13:02;37.37;;;18.10;;
50968;SDS011;36982;51.474;7.228;2023-03-03T12:24:15;38.20;;;16.03;;
50968;SDS011;36982;51.474;7.228;2023-03-03T12:26:33;35.80;;;15.73;;
50968;SDS011;36982;51.474;7.228;2023-03-03T12:32:00;33.50;;;15.43;;
50968;SDS011;36982;51.474;7.228;2023-03-03T12:37:22;35.97;;;17.30;;
50968;SDS011;36982;51.474;7.228;2023-03-03T12:40:02;39.87;;;18.67;;
50968;SDS011;36982;51.474;7.228;2023-03-03T12:45:42;33.97;;;18.13;;
50968;SDS011;36982;51.474;7.228;2023-03-03T12:48:40;36.73;;;19.17;;
50968;SDS011;36982;51.474;7.228;2023-03-03T12:56:55;39.47;;;19.30;;
50968;SDS011;36982;51.474;7.228;2023-03-03T13:02:33;40.17;;;18.10;;
50968;SDS011;36982;51.474;7.228;2023-03-03T13:05:20;33.07;;;15.87;;
50968;SDS011;36982;51.474;7.228;2023-03-03T13:22:31;33.67;;;15.13;;
50968;SDS011;36982;51.474;7.228;2023-03-03T13:25:40;30.73;;;14.30;;
50968;SDS011;36982;51.474;7.228;2023-03-03T13:37:34;32.00;;;14.80;;
50968;SDS011;36982;51.474;7.228;2023-03-03T13:40:18;31.30;;;16.57;;
50968;SDS011;36982;51.474;7.228;2023-03-03T13:42:56;29.57;;;13.47;;
50968;SDS011;36982;51.474;7.228;2023-03-03T13:53:51;29.47;;;12.90;;
50968;SDS011;36982;51.474;7.228;2023-03-03T14:21:44;25.03;;;13.10;;
50968;SDS011;36982;51.474;7.228;2023-03-03T14:24:19;26.50;;;13.40;;
50968;SDS011;36982;51.474;7.228;2023-03-03T14:31:51;29.23;;;15.10;;
50968;SDS011;36982;51.474;7.228;2023-03-03T14:36:47;29.60;;;15.13;;
50968;SDS011;36982;51.474;7.228;2023-03-03T14:39:24;32.87;;;15.87;;
50968;SDS011;36982;51.474;7.228;2023-03-03T14:41:57;32.97;;;15.57;;
50968;SDS011;36982;51.474;7.228;2023-03-03T14:44:56;29.93;;;15.80;;
50968;SDS011;36982;51.474;7.228;2023-03-03T14:47:22;24.63;;;13.27;;
50968;SDS011;36982;51.474;7.228;2023-03-03T14:49:49;32.60;;;15.20;;
50968;SDS011;36982;51.474;7.228;2023-03-03T14:54:44;28.50;;;14.33;;
50968;SDS011;36982;51.474;7.228;2023-03-03T14:59:59;22.47;;;11.97;;
50968;SDS011;36982;51.474;7.228;2023-03-03T15:05:25;23.03;;;12.33;;
50968;SDS011;36982;51.474;7.228;2023-03-03T15:10:37;26.50;;;13.27;;
50968;SDS011;36982;51.474;7.228;2023-03-03T15:13:24;24.87;;;11.83;;
50968;SDS011;36982;51.474;7.228;2023-03-03T15:18:49;19.50;;;9.93;;
50968;SDS011;36982;51.474;7.228;2023-03-03T15:27:22;21.60;;;11.13;;
50968;SDS011;36982;51.474;7.228;2023-03-03T15:32:38;18.60;;;9.90;;
50968;SDS011;36982;51.474;7.228;2023-03-03T15:35:47;18.57;;;9.50;;
50968;SDS011;36982;51.474;7.228;2023-03-03T15:41:07;16.60;;;9.10;;
50968;SDS011;36982;51.474;7.228;2023-03-03T15:57:50;18.23;;;8.13;;
50968;SDS011;36982;51.474;7.228;2023-03-03T16:02:54;14.43;;;7.83;;
50968;SDS011;36982;51.474;7.228;2023-03-03T16:05:33;15.90;;;8.93;;
50968;SDS011;36982;51.474;7.228;2023-03-03T16:08:18;13.43;;;7.73;;
50968;SDS011;36982;51.474;7.228;2023-03-03T16:11:05;14.50;;;8.40;;
50968;SDS011;36982;51.474;7.228;2023-03-03T16:13:42;17.37;;;8.73;;
50968;SDS011;36982;51.474;7.228;2023-03-03T16:22:21;15.97;;;8.50;;
50968;SDS011;36982;51.474;7.228;2023-03-03T16:30:54;17.00;;;7.47;;
50968;SDS011;36982;51.474;7.228;2023-03-03T16:33:31;16.23;;;8.67;;
50968;SDS011;36982;51.474;7.228;2023-03-03T16:38:40;19.83;;;9.53;;
50968;SDS011;36982;51.474;7.228;2023-03-03T16:41:28;17.53;;;9.80;;
50968;SDS011;36982;51.474;7.228;2023-03-03T16:49:46;17.23;;;9.47;;
50968;SDS011;36982;51.474;7.228;2023-03-03T16:52:24;16.77;;;9.87;;
50968;SDS011;36982;51.474;7.228;2023-03-03T16:55:12;20.43;;;10.00;;
50968;SDS011;36982;51.474;7.228;2023-03-03T16:57:49;18.77;;;9.03;;
50968;SDS011;36982;51.474;7.228;2023-03-03T17:00:27;18.57;;;9.77;;
50968;SDS011;36982;51.474;7.228;2023-03-03T17:06:22;18.37;;;10.83;;
50968;SDS011;36982;51.474;7.228;2023-03-03T17:09:02;20.47;;;10.27;;
50968;SDS011;36982;51.474;7.228;2023-03-03T17:11:42;20.57;;;10.10;;
50968;SDS011;36982;51.474;7.228;2023-03-03T17:14:19;19.10;;;10.73;;
50968;SDS011;36982;51.474;7.228;2023-03-03T17:17:03;22.20;;;11.50;;
50968;SDS011;36982;51.474;7.228;2023-03-03T17:22:51;23.10;;;11.83;;
50968;SDS011;36982;51.474;7.228;2023-03-03T17:28:03;28.23;;;12.33;;
50968;SDS011;36982;51.474;7.228;2023-03-03T18:07:47;26.63;;;14.57;;
50968;SDS011;36982;51.474;7.228;2023-03-03T18:18:25;23.73;;;12.80;;
50968;SDS011;36982;51.474;7.228;2023-03-03T18:21:09;23.30;;;12.90;;
50968;SDS011;36982;51.474;7.228;2023-03-03T18:23:41;24.10;;;12.47;;
50968;SDS011;36982;51.474;7.228;2023-03-03T18:37:06;29.73;;;14.90;;
50968;SDS011;36982;51.474;7.228;2023-03-03T18:42:39;25.23;;;13.33;;
50968;SDS011;36982;51.474;7.228;2023-03-03T18:50:35;28.60;;;14.23;;
50968;SDS011;36982;51.474;7.228;2023-03-03T18:53:18;28.90;;;16.23;;
50968;SDS011;36982;51.474;7.228;2023-03-03T18:55:53;27.20;;;14.97;;
50968;SDS011;36982;51.474;7.228;2023-03-03T18:58:34;28.17;;;14.83;;
50968;SDS011;36982;51.474;7.228;2023-03-03T19:06:28;27.13;;;15.50;;
50968;SDS011;36982;51.474;7.228;2023-03-03T19:08:56;28.33;;;14.90;;
50968;SDS011;36982;51.474;7.228;2023-03-03T19:11:31;27.03;;;15.37;;
50968;SDS011;36982;51.474;7.228;2023-03-03T19:16:41;30.03;;;16.80;;
50968;SDS011;36982;51.474;7.228;2023-03-03T19:19:57;31.90;;;16.80;;
50968;SDS011;36982;51.474;7.228;2023-03-03T19:28:17;28.30;;;15.57;;
50968;SDS011;36982;51.474;7.228;2023-03-03T19:39:05;29.50;;;16.13;;
50968;SDS011;36982;51.474;7.228;2023-03-03T19:44:56;30.63;;;17.00;;
50968;SDS011;36982;51.474;7.228;2023-03-03T19:53:14;31.47;;;15.93;;
50968;SDS011;36982;51.474;7.228;2023-03-03T19:59:05;30.87;;;15.77;;
50968;SDS011;36982;51.474;7.228;2023-03-03T20:15:28;32.10;;;16.87;;
50968;SDS011;36982;51.474;7.228;2023-03-03T20:18:19;32.33;;;15.87;;
50968;SDS011;36982;51.474;7.228;2023-03-03T20:23:39;36.43;;;17.37;;
50968;SDS011;36982;51.474;7.228;2023-03-03T20:32:02;31.73;;;17.37;;
50968;SDS011;36982;51.474;7.228;2023-03-03T20:37:07;30.37;;;17.17;;
50968;SDS011;36982;51.474;7.228;2023-03-03T20:45:17;32.23;;;17.37;;
50968;SDS011;36982;51.474;7.228;2023-03-03T20:51:22;34.17;;;16.20;;
50968;SDS011;36982;51.474;7.228;2023-03-03T20:54:15;33.33;;;17.07;;
50968;SDS011;36982;51.474;7.228;2023-03-03T21:05:25;33.40;;;16.60;;
50968;SDS011;36982;51.474;7.228;2023-03-03T21:10:21;31.03;;;17.03;;
50968;SDS011;36982;51.474;7.228;2023-03-03T21:12:49;29.20;;;15.70;;
50968;SDS011;36982;51.474;7.228;2023-03-03T21:15:21;30.53;;;16.47;;
50968;SDS011;36982;51.474;7.228;2023-03-03T21:17:49;31.57;;;16.63;;
50968;SDS011;36982;51.474;7.228;2023-03-03T21:20:19;29.87;;;15.23;;
50968;SDS011;36982;51.474;7.228;2023-03-03T21:22:50;24.70;;;14.20;;
50968;SDS011;36982;51.474;7.228;2023-03-03T21:25:41;25.37;;;14.00;;
50968;SDS011;36982;51.474;7.228;2023-03-03T21:28:18;25.83;;;13.70;;
50968;SDS011;36982;51.474;7.228;2023-03-03T21:33:53;26.67;;;12.83;;
50968;SDS011;36982;51.474;7.228;2023-03-03T21:36:21;23.60;;;12.30;;
50968;SDS011;36982;51.474;7.228;2023-03-03T21:42:03;16.93;;;8.53;;
50968;SDS011;36982;51.474;7.228;2023-03-03T21:44:45;13.93;;;8.27;;
50968;SDS011;36982;51.474;7.228;2023-03-03T21:47:25;15.60;;;10.10;;
50968;SDS011;36982;51.474;7.228;2023-03-03T21:49:52;15.20;;;8.40;;
50968;SDS011;36982;51.474;7.228;2023-03-03T21:52:18;17.10;;;8.30;;
50968;SDS011;36982;51.474;7.228;2023-03-03T21:54:46;16.80;;;8.90;;
50968;SDS011;36982;51.474;7.228;2023-03-03T21:57:13;17.57;;;9.20;;
50968;SDS011;36982;51.474;7.228;2023-03-03T21:59:39;17.23;;;10.23;;